Time;durP1;ratioP1;P1;durP2;ratioP2;P2;SDS_P1;SDS_P2;PMS_P1;PMS_P2;Temp;Humidity;BMP_temperature;BMP_pressure;BME280_temperature;BME280_humidity;BME280_pressure;Samples;Min_cycle;Max_cycle;Signal;HPM_P1;HPM_P2
2021/07/04 00:01:12;;;;;;;6.20;4.22;;;;;;;22.31;47.50;98553.06;5091034;28;20375;-90
2021/07/04 00:03:38;;;;;;;9.07;4.70;;;;;;;22.32;47.75;98560.22;5091948;28;20036;-91
2021/07/04 00:06:04;;;;;;;6.75;3.90;;;;;;;22.21;47.75;98543.06;5092725;28;20032;-88
2021/07/04 00:08:31;;;;;;;5.82;4.07;;;;;;;22.30;47.87;98556.78;5092935;28;20040;-90
2021/07/04 00:10:59;;;;;;;6.78;4.25;;;;;;;22.25;47.98;98558.09;5089681;28;20371;-90
2021/07/04 00:13:26;;;;;;;7.53;4.10;;;;;;;22.06;48.29;98531.59;5091057;28;20105;-91
2021/07/04 00:15:52;;;;;;;7.60;4.30;;;;;;;22.13;48.43;98551.78;5090840;28;20104;-90
2021/07/04 00:18:20;;;;;;;6.30;4.18;;;;;;;22.15;48.01;98549.81;5092446;28;20883;-90
2021/07/04 00:20:48;;;;;;;6.65;4.38;;;;;;;22.08;48.40;98526.91;5092273;28;20046;-90
2021/07/04 00:23:14;;;;;;;6.95;4.15;;;;;;;22.12;48.04;98534.69;5091624;28;20093;-89
2021/07/04 00:25:42;;;;;;;8.90;4.50;;;;;;;22.10;48.25;98531.22;5095345;28;20048;-90
2021/07/04 00:28:09;;;;;;;7.30;3.90;;;;;;;22.07;48.06;98538.72;5091376;28;20128;-91
2021/07/04 00:30:35;;;;;;;9.80;4.43;;;;;;;21.95;48.24;98518.88;5088644;28;20043;-91
2021/07/04 00:33:00;;;;;;;8.63;4.25;;;;;;;22.04;48.53;98528.13;5090367;28;20036;-91
2021/07/04 00:35:27;;;;;;;6.10;4.20;;;;;;;22.06;48.45;98531.59;5089761;28;20075;-89
2021/07/04 00:37:53;;;;;;;5.43;3.92;;;;;;;22.06;48.17;98537.00;5094127;28;20123;-89
2021/07/04 00:40:21;;;;;;;8.57;4.35;;;;;;;22.03;47.77;98529.09;5088398;28;20040;-91
2021/07/04 00:42:48;;;;;;;9.52;4.68;;;;;;;21.94;48.12;98504.47;5091097;28;20043;-90
2021/07/04 00:45:16;;;;;;;7.63;4.28;;;;;;;22.09;47.96;98531.34;5086822;28;20036;-91
2021/07/04 00:47:42;;;;;;;7.13;3.90;;;;;;;22.07;47.51;98528.72;5090888;28;20618;-90
2021/07/04 00:50:09;;;;;;;8.25;4.30;;;;;;;22.08;47.79;98516.09;5090817;28;20036;-92
2021/07/04 00:52:35;;;;;;;7.65;3.97;;;;;;;22.08;47.72;98516.94;5089779;28;20752;-91
2021/07/04 00:55:04;;;;;;;6.32;3.92;;;;;;;22.07;47.50;98508.94;5091371;28;20037;-90
2021/07/04 00:57:31;;;;;;;7.70;4.28;;;;;;;22.06;47.34;98515.34;5088287;28;20044;-91
2021/07/04 00:59:59;;;;;;;12.02;4.30;;;;;;;22.03;47.64;98510.16;5088380;28;20757;-90
2021/07/04 01:02:26;;;;;;;8.02;4.32;;;;;;;21.96;47.46;98498.94;5093329;28;20047;-91
2021/07/04 01:04:52;;;;;;;6.60;4.28;;;;;;;21.94;47.57;98509.03;5091819;28;20089;-90
2021/07/04 01:07:17;;;;;;;8.82;4.40;;;;;;;21.98;47.73;98518.63;5089743;28;20048;-90
2021/07/04 01:09:43;;;;;;;6.75;4.07;;;;;;;21.91;47.57;98501.16;5088579;28;20044;-90
2021/07/04 01:12:09;;;;;;;6.40;3.95;;;;;;;21.99;47.55;98500.53;5090336;28;20131;-89
2021/07/04 01:14:35;;;;;;;6.78;4.63;;;;;;;21.85;48.08;98486.25;5090771;28;20082;-91
2021/07/04 01:17:03;;;;;;;7.85;4.30;;;;;;;21.74;47.79;98478.94;5087805;28;20036;-89
2021/07/04 01:19:29;;;;;;;9.23;4.20;;;;;;;21.71;47.97;98492.72;5089046;28;20036;-92
2021/07/04 01:21:58;;;;;;;6.97;3.92;;;;;;;21.71;48.30;98508.13;5089076;28;20047;-89
2021/07/04 01:24:25;;;;;;;;;;;;;;;21.77;48.77;98514.88;5088576;28;20113;-91
2021/07/04 01:26:51;;;;;;;5.55;4.28;;;;;;;21.76;48.61;98507.75;5090853;28;19920;-90
2021/07/04 01:29:17;;;;;;;9.35;4.47;;;;;;;21.74;48.70;98505.16;5090584;28;20040;-90
2021/07/04 01:31:43;;;;;;;6.93;4.43;;;;;;;21.74;48.94;98503.31;5089951;28;20044;-91
2021/07/04 01:34:09;;;;;;;11.02;4.90;;;;;;;21.70;49.23;98509.09;5091358;28;20039;-90
2021/07/04 01:36:37;;;;;;;7.25;4.63;;;;;;;21.70;49.49;98500.97;5091521;28;20898;-92
2021/07/04 01:39:05;;;;;;;6.50;4.00;;;;;;;21.69;49.75;98510.06;5095368;28;20043;-90
2021/07/04 01:41:33;;;;;;;8.77;4.40;;;;;;;21.62;49.86;98500.69;5119340;28;20032;-90
2021/07/04 01:43:59;;;;;;;10.85;4.32;;;;;;;21.66;49.91;98513.00;5122395;28;20040;-90
2021/07/04 01:46:25;;;;;;;6.03;4.13;;;;;;;21.67;50.54;98517.44;5121556;27;20038;-90
2021/07/04 01:48:50;;;;;;;7.38;4.60;;;;;;;21.65;50.21;98501.31;5129649;27;20042;-90
2021/07/04 01:51:16;;;;;;;6.97;4.40;;;;;;;21.72;50.28;98504.41;5123961;27;20036;-88
2021/07/04 01:53:42;;;;;;;6.55;4.38;;;;;;;21.74;50.20;98507.88;5125875;27;20034;-90
2021/07/04 01:56:08;;;;;;;7.38;4.70;;;;;;;21.57;50.50;98478.53;5125598;27;20031;-89
2021/07/04 01:58:36;;;;;;;7.80;4.03;;;;;;;21.68;50.64;98501.06;5125582;27;20080;-90
2021/07/04 02:01:02;;;;;;;7.17;4.67;;;;;;;21.54;50.49;98477.78;5120993;27;20044;-89
2021/07/04 02:03:28;;;;;;;7.25;4.57;;;;;;;21.56;50.97;98474.09;5126715;27;20039;-89
2021/07/04 02:05:55;;;;;;;7.38;4.22;;;;;;;21.64;51.14;98496.00;5124954;27;20047;-88
2021/07/04 02:08:20;;;;;;;6.78;4.30;;;;;;;21.47;51.25;98471.13;5126473;27;20152;-90
2021/07/04 02:10:46;;;;;;;7.88;4.35;;;;;;;21.56;51.54;98484.91;5129299;27;20046;-89
2021/07/04 02:13:12;;;;;;;7.88;4.38;;;;;;;21.39;51.45;98465.41;5127224;27;20504;-90
2021/07/04 02:15:40;;;;;;;5.60;4.30;;;;;;;21.42;51.61;98467.03;5122283;27;20439;-88
2021/07/04 02:18:10;;;;;;;6.55;4.28;;;;;;;21.58;51.82;98485.66;5122172;27;20130;-89
2021/07/04 02:20:38;;;;;;;9.77;4.38;;;;;;;21.38;51.81;98471.78;5126271;27;20047;-90
2021/07/04 02:23:06;;;;;;;7.75;5.00;;;;;;;21.45;51.94;98481.22;5126275;27;20039;-89
2021/07/04 02:25:33;;;;;;;5.72;4.43;;;;;;;21.41;51.81;98479.72;5124331;27;20034;-89
2021/07/04 02:27:59;;;;;;;9.23;4.70;;;;;;;21.46;51.79;98487.47;5127244;27;20467;-91
2021/07/04 02:30:26;;;;;;;7.00;4.57;;;;;;;21.38;52.60;98481.75;5122669;27;20027;-88
2021/07/04 02:32:53;;;;;;;10.55;4.13;;;;;;;21.40;52.42;98475.22;5125173;27;20075;-88
2021/07/04 02:35:19;;;;;;;7.93;4.72;;;;;;;21.45;52.03;98480.34;5121935;27;20039;-89
2021/07/04 02:37:45;;;;;;;6.25;4.47;;;;;;;21.39;52.16;98467.25;5126549;27;20402;-89
2021/07/04 02:40:11;;;;;;;9.27;4.22;;;;;;;21.42;52.34;98472.44;5127129;27;20039;-91
2021/07/04 02:42:37;;;;;;;6.80;4.47;;;;;;;21.49;52.65;98480.00;5125578;27;20034;-91
2021/07/04 02:45:04;;;;;;;8.40;4.80;;;;;;;21.46;52.55;98479.34;5122863;27;20114;-90
2021/07/04 02:47:30;;;;;;;6.38;4.53;;;;;;;21.46;52.77;98473.94;5125867;27;20040;-90
2021/07/04 02:49:58;;;;;;;8.90;4.50;;;;;;;21.39;52.98;98470.81;5126549;27;20042;-90
2021/07/04 02:52:24;;;;;;;7.00;4.60;;;;;;;21.32;52.76;98466.88;5125054;27;20028;-90
2021/07/04 02:54:50;;;;;;;7.68;4.53;;;;;;;21.28;52.90;98454.56;5123573;27;20042;-89
2021/07/04 02:57:16;;;;;;;9.13;4.88;;;;;;;21.33;53.26;98457.75;5123126;27;20527;-89
2021/07/04 02:59:42;;;;;;;8.48;4.88;;;;;;;21.34;53.42;98465.75;5114464;28;20047;-90
2021/07/04 03:02:07;;;;;;;7.50;4.88;;;;;;;21.32;53.53;98450.63;5111738;28;20047;-91
2021/07/04 03:04:33;;;;;;;7.70;4.85;;;;;;;21.28;53.66;98450.00;5114777;28;20039;-87
2021/07/04 03:07:01;;;;;;;7.10;4.57;;;;;;;21.30;54.01;98441.78;5114980;28;20035;-89
2021/07/04 03:09:26;;;;;;;7.10;4.72;;;;;;;21.17;54.02;98424.75;5111973;28;20047;-89
2021/07/04 03:11:55;;;;;;;7.32;4.40;;;;;;;21.25;54.28;98455.66;5114852;28;20040;-88
2021/07/04 03:14:21;;;;;;;7.47;4.85;;;;;;;21.15;53.99;98437.53;5115536;28;20047;-90
2021/07/04 03:16:47;;;;;;;8.02;4.78;;;;;;;21.18;54.19;98457.06;5113417;27;20039;-88
2021/07/04 03:19:13;;;;;;;11.85;5.18;;;;;;;21.12;54.81;98457.53;5115154;28;20732;-90
2021/07/04 03:21:39;;;;;;;6.78;4.70;;;;;;;21.09;54.91;98460.47;5115439;28;20489;-89
2021/07/04 03:24:06;;;;;;;10.35;4.63;;;;;;;21.01;54.98;98447.53;5115254;28;20071;-90
2021/07/04 03:26:32;;;;;;;8.40;4.60;;;;;;;20.89;55.42;98438.50;5116160;28;20977;-89
2021/07/04 03:28:57;;;;;;;7.90;4.47;;;;;;;20.81;56.12;98445.47;5114081;28;20044;-91
2021/07/04 03:31:23;;;;;;;8.95;5.35;;;;;;;20.68;56.70;98438.25;5110724;28;20039;-92
2021/07/04 03:33:49;;;;;;;8.90;4.38;;;;;;;20.64;56.57;98444.84;5115141;28;20024;-89
2021/07/04 03:36:15;;;;;;;9.10;4.95;;;;;;;20.59;57.07;98446.19;5112574;28;20036;-90
2021/07/04 03:38:42;;;;;;;9.02;4.97;;;;;;;20.50;57.30;98436.88;5113518;28;20063;-90
2021/07/04 03:41:09;;;;;;;10.10;5.30;;;;;;;20.41;57.48;98432.16;5114261;27;20927;-89
2021/07/04 03:43:35;;;;;;;8.70;4.65;;;;;;;20.51;57.44;98446.69;5113423;28;20392;-88
2021/07/04 03:46:00;;;;;;;8.05;4.82;;;;;;;20.40;57.57;98427.72;5110597;28;20126;-89
2021/07/04 03:48:26;;;;;;;10.40;5.00;;;;;;;20.45;57.56;98455.25;5114716;28;20048;-90
2021/07/04 03:50:52;;;;;;;10.32;4.95;;;;;;;20.37;57.41;98444.16;5114742;28;20130;-90
2021/07/04 03:53:18;;;;;;;9.93;5.00;;;;;;;20.45;57.45;98453.44;5114197;28;20081;-89
2021/07/04 03:55:43;;;;;;;8.00;5.07;;;;;;;20.45;57.16;98457.94;5113027;28;20047;-89
2021/07/04 03:58:11;;;;;;;8.95;4.72;;;;;;;20.55;56.47;98472.53;5114556;28;20043;-89
2021/07/04 04:00:36;;;;;;;6.18;4.75;;;;;;;20.69;55.81;98476.97;5111846;28;20092;-90
2021/07/04 04:03:02;;;;;;;8.57;4.60;;;;;;;20.70;55.23;98452.50;5114202;28;20055;-90
2021/07/04 04:05:28;;;;;;;10.77;5.38;;;;;;;20.96;54.99;98479.44;5112736;28;20481;-90
2021/07/04 04:07:54;;;;;;;7.57;4.72;;;;;;;21.05;54.80;98480.59;5113864;28;20040;-89
2021/07/04 04:10:20;;;;;;;6.80;4.85;;;;;;;21.13;55.00;98473.66;5100054;28;20032;-89
2021/07/04 04:12:46;;;;;;;6.97;4.85;;;;;;;21.24;54.80;98480.09;5114167;28;20035;-91
2021/07/04 04:15:14;;;;;;;6.65;4.60;;;;;;;21.15;54.61;98469.97;5110552;28;20982;-90
2021/07/04 04:17:39;;;;;;;8.63;4.57;;;;;;;21.27;54.60;98486.13;5112914;28;20560;-89
2021/07/04 04:20:07;;;;;;;7.85;4.90;;;;;;;21.28;54.54;98492.41;5112810;28;20126;-91
2021/07/04 04:22:32;;;;;;;7.55;4.78;;;;;;;21.32;54.33;98483.94;5113015;28;20039;-91
2021/07/04 04:24:58;;;;;;;7.75;4.80;;;;;;;21.45;55.28;98486.63;5112772;28;20035;-90
2021/07/04 04:27:24;;;;;;;9.65;4.47;;;;;;;21.31;55.58;98467.81;5113058;28;20059;-90
2021/07/04 04:29:50;;;;;;;8.55;4.95;;;;;;;21.32;55.40;98478.53;5113878;28;20122;-91
2021/07/04 04:32:17;;;;;;;7.25;4.90;;;;;;;21.33;54.94;98473.97;5111595;28;20471;-89
2021/07/04 04:34:43;;;;;;;7.78;5.63;;;;;;;21.46;55.28;98490.19;5113699;28;20046;-89
2021/07/04 04:37:09;;;;;;;7.80;4.72;;;;;;;21.40;56.35;98480.66;5112714;28;20036;-90
2021/07/04 04:39:35;;;;;;;10.43;5.10;;;;;;;21.56;55.26;98502.03;5112617;28;20046;-91
2021/07/04 04:42:01;;;;;;;7.63;5.05;;;;;;;21.62;54.84;98516.91;5112808;28;20492;-89
2021/07/04 04:44:27;;;;;;;8.95;4.60;;;;;;;21.66;54.99;98518.41;5112479;28;20048;-90
2021/07/04 04:46:52;;;;;;;8.27;5.05;;;;;;;21.72;56.12;98512.53;5109863;28;20596;-90
2021/07/04 04:49:20;;;;;;;10.77;5.20;;;;;;;21.62;55.15;98484.44;5112567;28;20032;-90
2021/07/04 04:51:45;;;;;;;8.02;4.93;;;;;;;21.76;55.16;98502.34;5112715;28;20039;-89
2021/07/04 04:54:11;;;;;;;6.50;5.00;;;;;;;21.73;54.52;98479.09;5112746;28;20427;-91
2021/07/04 04:56:38;;;;;;;9.32;5.25;;;;;;;21.87;53.81;98494.25;5112456;28;20039;-89
2021/07/04 04:59:04;;;;;;;6.75;4.82;;;;;;;22.12;52.61;98474.22;5112507;28;20040;-90
2021/07/04 05:01:30;;;;;;;9.70;4.90;;;;;;;22.91;51.34;98487.78;5109742;28;20390;-90
2021/07/04 05:03:56;;;;;;;6.93;4.65;;;;;;;23.55;49.20;98487.84;5112151;28;20092;-90
2021/07/04 05:06:23;;;;;;;8.10;5.00;;;;;;;23.94;47.88;98474.59;5112425;28;20516;-90
2021/07/04 05:08:50;;;;;;;7.37;4.87;;;;;;;24.31;46.72;98484.94;5114227;28;20035;-91
2021/07/04 05:11:16;;;;;;;7.47;4.60;;;;;;;24.65;45.85;98481.97;5113867;28;20031;-91
2021/07/04 05:13:41;;;;;;;6.32;4.60;;;;;;;24.75;45.06;98492.88;5112785;28;20032;-90
2021/07/04 05:16:08;;;;;;;9.02;5.13;;;;;;;24.93;45.02;98498.50;5110203;28;20040;-90
2021/07/04 05:18:34;;;;;;;7.78;4.60;;;;;;;24.80;44.97;98485.16;5112397;28;20109;-91
2021/07/04 05:21:01;;;;;;;6.60;4.70;;;;;;;24.97;44.72;98508.97;5116244;28;20054;-91
2021/07/04 05:23:28;;;;;;;8.00;4.70;;;;;;;24.44;45.72;98511.00;5117907;28;20101;-89
2021/07/04 05:25:56;;;;;;;8.82;5.30;;;;;;;24.41;45.92;98501.28;5116455;28;20065;-91
2021/07/04 05:28:23;;;;;;;9.93;4.70;;;;;;;24.67;45.55;98500.88;5116748;28;20083;-91
2021/07/04 05:30:49;;;;;;;8.20;4.88;;;;;;;25.05;44.89;98496.53;5113915;28;20044;-90
2021/07/04 05:33:14;;;;;;;8.20;4.70;;;;;;;25.20;44.26;98500.63;5116191;28;20039;-91
2021/07/04 05:35:41;;;;;;;8.88;4.70;;;;;;;25.26;44.20;98499.19;5116508;28;20035;-91
2021/07/04 05:38:16;;;;;;;7.03;4.47;;;;;;;25.14;44.55;98496.56;5116514;28;20078;-92
2021/07/04 05:40:43;;;;;;;8.55;4.88;;;;;;;25.27;44.05;98485.44;5114947;28;20040;-91
2021/07/04 05:43:09;;;;;;;7.13;4.93;;;;;;;25.34;43.32;98485.72;5116658;28;20130;-90
2021/07/04 05:45:35;;;;;;;9.10;5.15;;;;;;;25.17;44.17;98482.66;5113226;28;20119;-91
2021/07/04 05:48:01;;;;;;;8.18;4.60;;;;;;;25.24;44.34;98501.19;5116153;28;20036;-90
2021/07/04 05:50:27;;;;;;;8.40;4.70;;;;;;;25.46;44.19;98514.53;5116042;28;20039;-89
2021/07/04 05:52:53;;;;;;;10.40;5.47;;;;;;;24.85;45.33;98512.78;5116081;28;20039;-90
2021/07/04 05:55:19;;;;;;;8.50;4.97;;;;;;;24.94;45.78;98508.38;5116679;28;20408;-89
2021/07/04 05:57:46;;;;;;;8.88;4.72;;;;;;;25.20;44.37;98504.19;5117582;28;20136;-92
2021/07/04 06:00:13;;;;;;;8.07;4.90;;;;;;;25.19;44.43;98488.84;5114904;28;20116;-90
2021/07/04 06:02:39;;;;;;;14.55;5.03;;;;;;;25.48;44.17;98485.31;5117068;28;20156;-90
2021/07/04 06:05:06;;;;;;;10.75;5.03;;;;;;;25.69;43.99;98509.66;5116664;28;20039;-91
2021/07/04 06:07:31;;;;;;;7.20;4.60;;;;;;;25.75;43.73;98483.72;5115919;28;20055;-91
2021/07/04 06:09:57;;;;;;;10.13;4.82;;;;;;;25.77;43.42;98500.78;5115938;28;20058;-91
2021/07/04 06:12:23;;;;;;;9.32;5.00;;;;;;;25.01;45.48;98506.84;5115749;28;20044;-91
2021/07/04 06:14:50;;;;;;;11.23;4.80;;;;;;;25.12;45.30;98504.00;5115229;28;20043;-91
2021/07/04 06:17:16;;;;;;;8.35;4.70;;;;;;;25.37;45.00;98490.88;5115473;28;20554;-91
2021/07/04 06:19:42;;;;;;;8.00;4.72;;;;;;;25.30;45.08;98508.78;5115299;28;20039;-91
2021/07/04 06:22:07;;;;;;;10.20;5.20;;;;;;;25.61;44.13;98495.91;5116823;28;20044;-90
2021/07/04 06:24:33;;;;;;;7.25;4.85;;;;;;;25.67;44.30;98489.88;5115865;28;20040;-90
2021/07/04 06:26:59;;;;;;;9.38;4.93;;;;;;;25.92;43.84;98490.34;5116808;28;20044;-92
2021/07/04 06:29:25;;;;;;;10.32;5.28;;;;;;;25.17;45.11;98490.81;5116987;28;20058;-92
2021/07/04 06:31:52;;;;;;;8.40;4.90;;;;;;;25.67;44.16;98503.50;5113448;28;20032;-90
2021/07/04 06:34:18;;;;;;;9.77;4.50;;;;;;;25.78;43.73;98480.69;5116109;28;20539;-91
2021/07/04 06:36:44;;;;;;;10.07;5.05;;;;;;;25.69;43.93;98500.63;5116109;28;20032;-91
2021/07/04 06:39:09;;;;;;;9.80;4.70;;;;;;;25.83;44.12;98511.09;5114984;28;20040;-91
2021/07/04 06:41:35;;;;;;;8.80;4.55;;;;;;;26.20;43.32;98504.91;5115025;28;20127;-91
2021/07/04 06:44:02;;;;;;;10.00;4.95;;;;;;;26.38;43.12;98507.72;5116638;28;20043;-91
2021/07/04 06:46:28;;;;;;;6.30;4.25;;;;;;;26.14;42.84;98502.78;5113920;28;20366;-91
2021/07/04 06:48:55;;;;;;;5.95;4.30;;;;;;;26.20;43.48;98516.66;5116277;28;20057;-90
2021/07/04 06:51:21;;;;;;;8.15;4.60;;;;;;;26.32;43.27;98511.88;5116504;28;20123;-90
2021/07/04 06:53:47;;;;;;;7.90;5.00;;;;;;;26.30;43.46;98513.03;5115002;28;20067;-90
2021/07/04 06:56:13;;;;;;;8.27;4.63;;;;;;;26.60;43.10;98512.81;5114711;28;20048;-90
2021/07/04 06:58:39;;;;;;;6.90;4.30;;;;;;;26.73;42.58;98512.50;5114377;28;20039;-91
2021/07/04 07:01:05;;;;;;;7.63;4.65;;;;;;;26.63;43.02;98496.19;5112595;28;20062;-91
2021/07/04 07:03:30;;;;;;;8.23;4.50;;;;;;;26.91;41.98;98506.22;5114789;28;20031;-91
2021/07/04 07:05:58;;;;;;;6.95;4.50;;;;;;;26.91;41.97;98504.34;5115809;28;20103;-91
2021/07/04 07:08:23;;;;;;;8.00;4.40;;;;;;;27.12;42.22;98517.75;5116305;28;20036;-90
2021/07/04 07:10:49;;;;;;;7.03;4.57;;;;;;;26.41;43.67;98511.03;5114895;28;20120;-92
2021/07/04 07:13:15;;;;;;;8.70;4.97;;;;;;;25.98;44.14;98500.63;5114813;28;20089;-90
2021/07/04 07:15:42;;;;;;;7.88;4.95;;;;;;;26.17;44.42;98502.47;5111541;28;20036;-91
2021/07/04 07:18:08;;;;;;;9.32;4.60;;;;;;;25.76;44.56;98502.66;5114986;28;20031;-91
2021/07/04 07:20:36;;;;;;;11.45;4.63;;;;;;;25.97;44.92;98477.13;5115659;28;20527;-91
2021/07/04 07:23:03;;;;;;;7.85;4.75;;;;;;;26.67;43.83;98491.25;5115580;28;20046;-92
2021/07/04 07:25:31;;;;;;;10.52;5.10;;;;;;;26.84;43.00;98476.81;5116781;28;20055;-93
2021/07/04 07:27:57;;;;;;;15.90;4.80;;;;;;;27.11;42.39;98490.59;5116610;28;20505;-93
2021/07/04 07:30:23;;;;;;;12.02;5.80;;;;;;;27.50;42.17;98477.56;5113676;28;20050;-89
2021/07/04 07:32:49;;;;;;;8.65;5.10;;;;;;;27.64;42.49;98468.81;5115275;28;20551;-94
2021/07/04 07:35:15;;;;;;;9.60;5.35;;;;;;;27.68;41.67;98471.25;5116618;28;20039;-93
2021/07/04 07:37:41;;;;;;;8.52;5.00;;;;;;;27.80;41.80;98472.69;5115299;28;20043;-93
2021/07/04 07:40:09;;;;;;;6.35;4.97;;;;;;;28.15;41.22;98473.66;5115424;28;20055;-94
2021/07/04 07:42:35;;;;;;;10.68;4.78;;;;;;;28.15;40.66;98460.88;5114654;28;20056;-92
2021/07/04 07:45:01;;;;;;;7.50;5.05;;;;;;;27.71;41.88;98460.84;5113335;28;20172;-92
2021/07/04 07:47:27;;;;;;;6.90;5.00;;;;;;;28.00;42.29;98474.28;5116535;28;20039;-94
2021/07/04 07:49:53;;;;;;;8.25;5.20;;;;;;;27.77;42.45;98478.50;5117664;28;20036;-94
2021/07/04 07:52:19;;;;;;;8.23;5.13;;;;;;;27.98;42.15;98470.84;5117623;28;20036;-92
2021/07/04 07:54:45;;;;;;;9.07;5.28;;;;;;;27.79;42.21;98481.91;5117498;28;20044;-94
2021/07/04 07:57:12;;;;;;;9.77;5.43;;;;;;;27.86;42.76;98477.56;5118471;28;20036;-94
2021/07/04 07:59:38;;;;;;;9.07;5.05;;;;;;;27.97;42.72;98473.72;5117278;28;20066;-93
2021/07/04 08:02:04;;;;;;;9.38;5.15;;;;;;;28.02;42.21;98455.84;5101804;28;20039;-93
2021/07/04 08:04:30;;;;;;;7.03;5.13;;;;;;;28.51;41.83;98457.16;5094885;28;20046;-92
2021/07/04 08:06:56;;;;;;;9.45;4.97;;;;;;;29.11;41.63;98456.25;5113479;28;20552;-94
2021/07/04 08:09:21;;;;;;;8.10;5.43;;;;;;;28.30;42.12;98447.47;5116408;28;20037;-93
2021/07/04 08:11:48;;;;;;;9.70;5.13;;;;;;;28.29;42.40;98459.41;5116412;28;20055;-93
2021/07/04 08:14:15;;;;;;;9.25;5.95;;;;;;;28.40;42.39;98429.03;5116380;28;20054;-95
2021/07/04 08:16:41;;;;;;;7.00;5.80;;;;;;;28.40;42.77;98445.44;5111161;28;20089;-94
2021/07/04 08:19:07;;;;;;;9.35;5.50;;;;;;;28.72;42.71;98441.19;5114306;28;20043;-93
2021/07/04 08:21:33;;;;;;;9.80;5.43;;;;;;;28.78;42.24;98424.13;5114518;28;20073;-95
2021/07/04 08:23:59;;;;;;;7.30;5.13;;;;;;;28.74;42.04;98410.94;5116785;28;20040;-92
2021/07/04 08:26:25;;;;;;;8.90;5.75;;;;;;;28.92;42.03;98435.44;5116052;28;20126;-92
2021/07/04 08:28:51;;;;;;;8.80;5.25;;;;;;;28.84;41.59;98406.16;5114971;28;20386;-95
2021/07/04 08:31:18;;;;;;;9.25;5.93;;;;;;;29.02;42.55;98431.53;5114291;28;20095;-93
2021/07/04 08:33:44;;;;;;;7.83;5.93;;;;;;;28.55;42.85;98431.22;5116433;28;20052;-93
2021/07/04 08:36:10;;;;;;;9.90;5.95;;;;;;;28.84;42.58;98439.00;5114158;28;20450;-92
2021/07/04 08:38:36;;;;;;;8.98;6.30;;;;;;;28.93;42.06;98427.06;5115257;28;20040;-92
2021/07/04 08:41:02;;;;;;;8.95;5.68;;;;;;;28.62;42.89;98437.72;5114629;28;20139;-93
2021/07/04 08:43:30;;;;;;;11.38;6.05;;;;;;;29.12;41.19;98420.47;5114553;28;20401;-93
2021/07/04 08:45:57;;;;;;;8.48;5.93;;;;;;;29.44;41.30;98396.88;5116632;28;20040;-92
2021/07/04 08:48:25;;;;;;;13.18;5.80;;;;;;;29.71;40.38;98397.56;5116714;28;20051;-93
2021/07/04 08:50:52;;;;;;;7.95;6.28;;;;;;;29.69;40.76;98423.28;5114865;28;20090;-93
2021/07/04 08:53:18;;;;;;;8.90;6.00;;;;;;;29.47;40.92;98429.41;5114620;28;20413;-92
2021/07/04 08:55:44;;;;;;;8.05;5.70;;;;;;;29.61;40.70;98406.81;5117417;28;20043;-91
2021/07/04 08:58:11;;;;;;;9.35;5.38;;;;;;;30.27;39.30;98415.81;5117380;28;20068;-93
2021/07/04 09:00:38;;;;;;;13.30;6.15;;;;;;;30.17;39.72;98406.09;5116769;28;20122;-93
2021/07/04 09:03:22;;;;;;;8.40;5.88;;;;;;;30.42;38.99;98406.88;5117349;28;20063;-93
2021/07/04 09:05:49;;;;;;;7.95;5.53;;;;;;;30.55;38.14;98425.53;5117494;28;20115;-93
2021/07/04 09:08:18;;;;;;;8.57;5.70;;;;;;;29.40;39.89;98407.31;5116544;28;20043;-94
2021/07/04 09:10:44;;;;;;;8.13;5.47;;;;;;;29.47;40.61;98407.47;5117538;28;20016;-94
2021/07/04 09:13:25;;;;;;;12.95;5.45;;;;;;;30.14;39.98;98410.00;5578993;22;20048;-93
2021/07/04 09:16:02;;;;;;;7.88;5.70;;;;;;;30.14;39.27;98398.19;5076797;28;20120;-95
2021/07/04 09:18:28;;;;;;;10.40;5.68;;;;;;;30.48;39.05;98384.22;5076540;28;20051;-92
2021/07/04 09:20:56;;;;;;;6.57;5.45;;;;;;;29.67;40.17;98389.69;5075458;28;20037;-95
2021/07/04 09:23:32;;;;;;;8.48;5.72;;;;;;;30.03;40.08;98388.44;5076761;28;20055;-93
2021/07/04 09:25:58;;;;;;;11.93;5.78;;;;;;;30.17;39.49;98397.88;5071871;28;20076;-92
2021/07/04 09:28:24;;;;;;;7.93;5.90;;;;;;;29.25;41.03;98382.47;5067170;28;20044;-93
2021/07/04 09:30:53;;;;;;;7.60;5.90;;;;;;;30.24;39.75;98388.72;5075384;28;20114;-94
2021/07/04 09:33:22;;;;;;;9.48;5.75;;;;;;;30.61;38.26;98389.16;5078120;28;20051;-94
2021/07/04 09:35:53;;;;;;;11.70;5.65;;;;;;;30.29;38.85;98380.84;5076720;28;20040;-95
2021/07/04 09:38:22;;;;;;;8.45;6.05;;;;;;;30.04;39.65;98387.44;5070013;28;20044;-92
2021/07/04 09:40:48;;;;;;;11.55;5.70;;;;;;;30.76;38.90;98383.75;5077401;28;20040;-93
2021/07/04 09:43:16;;;;;;;9.68;5.78;;;;;;;30.99;37.89;98370.97;5074202;28;20052;-92
2021/07/04 09:45:46;;;;;;;6.25;5.13;;;;;;;30.57;38.75;98377.66;5073584;28;20127;-93
2021/07/04 09:48:13;;;;;;;9.00;6.13;;;;;;;30.37;38.71;98376.38;5073709;28;20041;-90
2021/07/04 09:50:40;;;;;;;7.63;6.00;;;;;;;30.50;38.71;98387.66;5074382;28;20072;-94
2021/07/04 09:53:07;;;;;;;7.57;5.63;;;;;;;31.39;37.74;98365.34;5076371;28;20497;-92
2021/07/04 09:55:35;;;;;;;8.10;5.80;;;;;;;31.18;37.12;98371.50;5067516;28;20036;-91
2021/07/04 09:58:03;;;;;;;10.65;5.88;;;;;;;30.80;38.10;98374.97;5074545;28;20064;-91
2021/07/04 10:00:30;;;;;;;8.80;6.53;;;;;;;29.38;39.44;98392.09;5072035;28;20428;-93
2021/07/04 10:03:15;;;;;;;9.73;5.90;;;;;;;29.94;39.21;98368.41;5074063;28;20101;-94
2021/07/04 10:05:43;;;;;;;11.68;6.78;;;;;;;30.35;39.01;98383.94;5068425;28;20102;-93
2021/07/04 10:08:23;;;;;;;8.90;6.00;;;;;;;30.88;37.27;98390.56;5079536;28;20048;-95
2021/07/04 10:10:55;;;;;;;14.90;6.10;;;;;;;30.62;38.31;98390.84;5080712;28;20143;-94
2021/07/04 10:13:22;;;;;;;8.68;5.72;;;;;;;30.99;36.54;98381.94;5082140;28;20061;-92
2021/07/04 10:15:48;;;;;;;8.40;6.03;;;;;;;30.66;36.97;98362.84;5080705;28;20079;-93
2021/07/04 10:18:14;;;;;;;9.40;5.60;;;;;;;31.21;36.63;98362.91;5078916;28;20502;-92
2021/07/04 10:20:42;;;;;;;8.05;5.55;;;;;;;30.96;36.32;98348.50;5077724;28;20033;-94
2021/07/04 10:23:08;;;;;;;7.05;5.65;;;;;;;31.34;35.97;98352.16;5077936;28;20513;-92
2021/07/04 10:25:35;;;;;;;9.93;5.30;;;;;;;31.56;35.13;98363.34;5078885;28;20036;-91
2021/07/04 10:28:04;;;;;;;11.13;5.32;;;;;;;31.89;34.65;98356.47;5079753;28;20060;-93
2021/07/04 10:30:31;;;;;;;9.05;5.40;;;;;;;31.86;34.54;98361.50;5073334;28;20048;-95
2021/07/04 10:33:12;;;;;;;9.43;5.85;;;;;;;32.27;33.05;98359.19;5080201;28;20209;-94
2021/07/04 10:36:03;;;;;;;10.45;5.55;;;;;;;32.44;33.36;98346.03;5079791;28;20123;-94
2021/07/04 10:38:51;;;;;;;7.88;5.32;;;;;;;32.21;33.12;98345.31;5069041;28;20044;-92
2021/07/04 10:41:20;;;;;;;7.80;5.00;;;;;;;31.58;34.83;98347.50;5077935;28;20402;-94
2021/07/04 10:43:52;;;;;;;8.75;5.45;;;;;;;31.60;34.85;98361.91;5082988;28;20043;-94
2021/07/04 10:46:19;;;;;;;9.45;5.03;;;;;;;31.43;34.57;98350.22;5079183;28;20060;-93
2021/07/04 10:48:55;;;;;;;9.37;5.33;;;;;;;31.38;34.34;98336.13;5088749;28;20573;-94
2021/07/04 10:51:23;;;;;;;6.97;4.85;;;;;;;31.08;35.54;98339.66;5082778;28;20043;-93
2021/07/04 10:53:51;;;;;;;8.67;5.13;;;;;;;30.39;35.59;98342.25;5082025;28;20059;-92
2021/07/04 10:56:40;;;;;;;7.50;4.90;;;;;;;30.64;36.50;98364.06;5080210;28;20051;-92
2021/07/04 10:59:09;;;;;;;8.48;5.35;;;;;;;31.10;35.58;98350.47;5084738;28;20050;-93
2021/07/04 11:01:58;;;;;;;12.27;5.50;;;;;;;31.36;36.10;98343.69;5083903;28;20041;-92
2021/07/04 11:04:52;;;;;;;9.45;5.68;;;;;;;31.60;34.59;98318.78;5081647;28;20044;-95
2021/07/04 11:07:18;;;;;;;9.82;5.78;;;;;;;32.06;34.48;98326.06;5068286;28;20068;-93
2021/07/04 11:10:17;;;;;;;9.60;5.47;;;;;;;31.88;34.04;98320.88;5085206;28;20068;-93
2021/07/04 11:12:44;;;;;;;7.60;5.30;;;;;;;31.77;34.05;98291.13;5079589;28;20055;-94
2021/07/04 11:15:29;;;;;;;11.32;5.50;;;;;;;31.65;34.23;98304.50;5086721;28;20104;-93
2021/07/04 11:18:04;;;;;;;9.30;5.15;;;;;;;31.87;33.47;98297.19;5087542;28;20047;-96
2021/07/04 11:20:32;;;;;;;9.98;4.72;;;;;;;31.97;33.89;98288.66;5085739;28;20047;-92
2021/07/04 11:22:58;;;;;;;;;;;;;;;32.16;33.20;98304.59;5085150;28;20051;-92
2021/07/04 11:25:25;;;;;;;;;;;;;;;32.00;33.62;98307.56;5083197;28;19999;-94
2021/07/04 11:28:06;;;;;;;;;;;;;;;31.36;34.77;98305.25;5082963;28;19921;-94
2021/07/04 11:30:36;;;;;;;;;;;;;;;32.04;33.81;98301.50;5084881;28;20274;-93
2021/07/04 11:33:21;;;;;;;;;;;;;;;32.60;32.61;98300.13;5079509;28;19936;-93
2021/07/04 11:35:50;;;;;;;;;;;;;;;32.30;32.35;98294.66;5077592;28;19927;-93